Time;durP1;ratioP1;P1;durP2;ratioP2;P2;SDS_P1;SDS_P2;PMS_P1;PMS_P2;Temp;Humidity;BMP_temperature;BMP_pressure;BME280_temperature;BME280_humidity;BME280_pressure;Samples;Min_cycle;Max_cycle;Signal;HPM_P1;HPM_P2
2022/12/23 00:00:05;;;;;;;;;;;;;;;;;;4453387;32;19955;-81
2022/12/23 00:02:30;;;;;;;;;;;;;;;;;;4453481;32;19951;-82
2022/12/23 00:04:55;;;;;;;;;;;;;;;;;;4454614;32;19948;-81
2022/12/23 00:07:20;;;;;;;;;;;;;;;;;;4452925;32;19932;-81
2022/12/23 00:09:45;;;;;;;;;;;;;;;;;;4439989;32;19940;-81
2022/12/23 00:15:04;;;;;;;;;;;;;;;;;;4454518;32;19927;-81
2022/12/23 00:17:29;;;;;;;;;;;;;;;;;;4452899;32;20310;-81
2022/12/23 00:19:54;;;;;;;;;;;;;;;;;;4454212;32;20317;-80
2022/12/23 00:23:03;;;;;;;;;;;;;;;;;;4452493;32;20015;-81
2022/12/23 00:25:04;;;;;;;;;;;;;;;;;;4452825;32;19929;-80
2022/12/23 00:27:29;;;;;;;;;;;;;;;;;;4453597;32;19963;-81
2022/12/23 00:29:54;;;;;;;;;;;;;;;;;;4440253;32;19936;-81
2022/12/23 00:32:19;;;;;;;;;;;;;;;;;;4438905;32;19963;-79
2022/12/23 00:34:44;;;;;;;;;;;;;;;;;;4453431;32;20277;-78
2022/12/23 00:37:09;;;;;;;;;;;;;;;;;;4439683;32;19940;-78
2022/12/23 00:45:14;;;;;;;;;;;;;;;;;;4451670;32;19951;-78
2022/12/23 00:50:23;;;;;;;;;;;;;;;;;;4454262;32;19927;-79
2022/12/23 00:52:48;;;;;;;;;;;;;;;;;;4453311;32;19940;-79
2022/12/23 00:55:13;;;;;;;;;;;;;;;;;;4439166;32;19941;-79
2022/12/23 00:57:38;;;;;;;;;;;;;;;;;;4453983;32;20310;-79
2022/12/23 01:00:03;;;;;;;;;;;;;;;;;;4455110;32;19988;-80
2022/12/23 01:05:45;;;;;;;;;;;;;;;;;;4454346;32;20311;-80
2022/12/23 01:08:03;;;;;;;;;;;;;;;;;;4451297;32;19947;-79
2022/12/23 01:10:28;;;;;;;;;;;;;;;;;;4454090;32;19936;-81
2022/12/23 01:12:54;;;;;;;;;;;;;;;;;;4453032;32;19940;-81
2022/12/23 01:15:19;;;;;;;;;;;;;;;;;;4452467;32;19947;-81
2022/12/23 01:17:44;;;;;;;;;;;;;;;;;;4453486;32;19989;-81
2022/12/23 01:20:09;;;;;;;;;;;;;;;;;;4453118;32;19952;-81
2022/12/23 01:22:34;;;;;;;;;;;;;;;;;;4453137;32;20272;-80
2022/12/23 01:24:59;;;;;;;;;;;;;;;;;;4454324;32;19940;-80
2022/12/23 01:27:24;;;;;;;;;;;;;;;;;;4454512;32;19947;-79
2022/12/23 01:29:49;;;;;;;;;;;;;;;;;;4453943;32;19971;-81
2022/12/23 01:32:14;;;;;;;;;;;;;;;;;;4457018;32;19949;-80
2022/12/23 01:34:39;;;;;;;;;;;;;;;;;;4459305;32;19936;-80
2022/12/23 01:37:05;;;;;;;;;;;;;;;;;;4459653;32;19953;-80
2022/12/23 01:39:30;;;;;;;;;;;;;;;;;;4440818;32;19956;-80
2022/12/23 01:44:38;;;;;;;;;;;;;;;;;;4452874;32;19950;-80
2022/12/23 01:47:04;;;;;;;;;;;;;;;;;;4451806;32;19940;-79
2022/12/23 01:49:29;;;;;;;;;;;;;;;;;;4438014;32;19936;-80
2022/12/23 01:51:54;;;;;;;;;;;;;;;;;;4451846;32;20004;-80
2022/12/23 01:54:19;;;;;;;;;;;;;;;;;;4454315;32;19937;-80
2022/12/23 01:56:44;;;;;;;;;;;;;;;;;;4440731;32;19936;-81
2022/12/23 01:59:09;;;;;;;;;;;;;;;;;;4454586;32;19936;-80
2022/12/23 02:04:18;;;;;;;;;;;;;;;;;;4455810;32;20281;-80
2022/12/23 02:09:27;;;;;;;;;;;;;;;;;;4455980;32;19936;-80
2022/12/23 02:11:52;;;;;;;;;;;;;;;;;;4454618;32;20306;-79
2022/12/23 02:17:01;;;;;;;;;;;;;;;;;;4453920;32;20049;-79
2022/12/23 02:19:26;;;;;;;;;;;;;;;;;;4454306;32;19944;-78
2022/12/23 02:21:51;;;;;;;;;;;;;;;;;;4453620;32;19937;-78
2022/12/23 02:24:17;;;;;;;;;;;;;;;;;;4454017;32;19944;-78
2022/12/23 02:26:42;;;;;;;;;;;;;;;;;;4453778;32;20265;-78
2022/12/23 02:29:07;;;;;;;;;;;;;;;;;;4441190;32;19950;-78
2022/12/23 02:31:32;;;;;;;;;;;;;;;;;;4455562;32;19959;-79
2022/12/23 02:33:57;;;;;;;;;;;;;;;;;;4439838;32;19941;-79
2022/12/23 02:36:22;;;;;;;;;;;;;;;;;;4453727;32;20233;-80
2022/12/23 02:38:47;;;;;;;;;;;;;;;;;;4453982;32;20207;-79
2022/12/23 02:41:12;;;;;;;;;;;;;;;;;;4455472;32;19943;-78
2022/12/23 02:43:37;;;;;;;;;;;;;;;;;;4453376;32;20344;-79
2022/12/23 02:46:02;;;;;;;;;;;;;;;;;;4455466;32;19944;-79
2022/12/23 02:48:27;;;;;;;;;;;;;;;;;;4455037;32;19936;-80
2022/12/23 02:50:53;;;;;;;;;;;;;;;;;;4453949;32;19936;-79
2022/12/23 02:53:18;;;;;;;;;;;;;;;;;;4455484;32;20000;-78
2022/12/23 02:55:43;;;;;;;;;;;;;;;;;;4440764;32;19940;-78
2022/12/23 02:58:08;;;;;;;;;;;;;;;;;;4453847;32;19937;-79
2022/12/23 03:00:33;;;;;;;;;;;;;;;;;;4454485;32;20349;-79
2022/12/23 03:02:58;;;;;;;;;;;;;;;;;;4453690;32;19937;-79
2022/12/23 03:05:24;;;;;;;;;;;;;;;;;;4453860;32;19932;-79
2022/12/23 03:07:49;;;;;;;;;;;;;;;;;;4452922;32;19949;-79
2022/12/23 03:10:14;;;;;;;;;;;;;;;;;;4439707;32;20014;-80
2022/12/23 03:12:39;;;;;;;;;;;;;;;;;;4453787;32;19932;-79
2022/12/23 03:15:04;;;;;;;;;;;;;;;;;;4454803;32;20294;-80
2022/12/23 03:17:30;;;;;;;;;;;;;;;;;;4455266;32;19937;-80
2022/12/23 03:19:55;;;;;;;;;;;;;;;;;;4454897;32;19945;-79
2022/12/23 03:22:20;;;;;;;;;;;;;;;;;;4452810;32;20339;-79
2022/12/23 03:24:45;;;;;;;;;;;;;;;;;;4453639;32;19988;-80
2022/12/23 03:27:10;;;;;;;;;;;;;;;;;;4453323;32;19955;-80
2022/12/23 03:29:35;;;;;;;;;;;;;;;;;;4452867;32;19947;-80
2022/12/23 03:32:00;;;;;;;;;;;;;;;;;;4454146;32;19974;-80
2022/12/23 03:34:25;;;;;;;;;;;;;;;;;;4453232;32;19932;-80
2022/12/23 03:36:50;;;;;;;;;;;;;;;;;;4453064;32;19996;-80
2022/12/23 03:39:15;;;;;;;;;;;;;;;;;;4452976;32;20305;-81
2022/12/23 03:41:40;;;;;;;;;;;;;;;;;;4453853;32;20132;-81
2022/12/23 03:44:06;;;;;;;;;;;;;;;;;;4453435;32;19947;-80
2022/12/23 03:46:31;;;;;;;;;;;;;;;;;;4453348;32;20375;-80
2022/12/23 03:48:56;;;;;;;;;;;;;;;;;;4439103;32;19940;-81
2022/12/23 03:51:21;;;;;;;;;;;;;;;;;;4453196;32;19951;-82
2022/12/23 03:53:46;;;;;;;;;;;;;;;;;;4454545;32;19944;-82
2022/12/23 03:56:11;;;;;;;;;;;;;;;;;;4453460;32;20032;-81
2022/12/23 03:58:36;;;;;;;;;;;;;;;;;;4453681;32;20315;-82
2022/12/23 04:01:01;;;;;;;;;;;;;;;;;;4439245;32;19940;-82
2022/12/23 04:03:26;;;;;;;;;;;;;;;;;;4453247;32;19950;-82
2022/12/23 04:05:52;;;;;;;;;;;;;;;;;;4439385;32;19962;-82
2022/12/23 04:08:17;;;;;;;;;;;;;;;;;;4454140;32;20278;-80
2022/12/23 04:10:42;;;;;;;;;;;;;;;;;;4455142;32;19957;-81
2022/12/23 04:13:07;;;;;;;;;;;;;;;;;;4440001;32;19955;-82
2022/12/23 04:15:33;;;;;;;;;;;;;;;;;;4446367;32;19959;-81
2022/12/23 04:17:58;;;;;;;;;;;;;;;;;;4463244;32;19953;-81
2022/12/23 04:20:23;;;;;;;;;;;;;;;;;;4462744;32;20287;-81
2022/12/23 04:22:48;;;;;;;;;;;;;;;;;;4445091;32;19932;-83
2022/12/23 04:25:13;;;;;;;;;;;;;;;;;;4461022;32;19976;-84
2022/12/23 04:27:38;;;;;;;;;;;;;;;;;;4460576;32;19940;-81
2022/12/23 04:30:03;;;;;;;;;;;;;;;;;;4461713;32;19933;-83
2022/12/23 04:32:28;;;;;;;;;;;;;;;;;;4442243;32;19945;-82
2022/12/23 04:34:53;;;;;;;;;;;;;;;;;;4447526;32;19971;-82
2022/12/23 04:37:18;;;;;;;;;;;;;;;;;;4457085;32;20223;-82
2022/12/23 04:39:43;;;;;;;;;;;;;;;;;;4455003;32;20349;-82
2022/12/23 04:42:09;;;;;;;;;;;;;;;;;;4444420;32;19937;-82
2022/12/23 04:44:34;;;;;;;;;;;;;;;;;;4453659;32;19959;-82
2022/12/23 04:46:59;;;;;;;;;;;;;;;;;;4455614;32;19988;-82
2022/12/23 04:49:24;;;;;;;;;;;;;;;;;;4440669;32;19947;-82
2022/12/23 04:51:49;;;;;;;;;;;;;;;;;;4453803;32;19932;-82
2022/12/23 04:54:14;;;;;;;;;;;;;;;;;;4453659;32;20306;-83
2022/12/23 04:56:39;;;;;;;;;;;;;;;;;;4453532;32;19998;-82
2022/12/23 04:59:04;;;;;;;;;;;;;;;;;;4453532;32;19967;-83
2022/12/23 05:01:29;;;;;;;;;;;;;;;;;;4454665;32;19937;-83
2022/12/23 05:03:54;;;;;;;;;;;;;;;;;;4452745;32;19952;-83
2022/12/23 05:06:20;;;;;;;;;;;;;;;;;;4452758;32;19936;-84
2022/12/23 05:08:45;;;;;;;;;;;;;;;;;;4453074;32;19967;-83
2022/12/23 05:11:10;;;;;;;;;;;;;;;;;;4452622;32;19976;-82
2022/12/23 05:13:35;;;;;;;;;;;;;;;;;;4452983;32;20348;-81
2022/12/23 05:16:00;;;;;;;;;;;;;;;;;;4452713;32;19995;-82
2022/12/23 05:18:25;;;;;;;;;;;;;;;;;;4455770;32;19993;-82
2022/12/23 05:20:50;;;;;;;;;;;;;;;;;;4438612;32;19981;-82
2022/12/23 05:23:16;;;;;;;;;;;;;;;;;;4452321;32;19937;-83
2022/12/23 05:25:41;;;;;;;;;;;;;;;;;;4438235;32;20104;-84
2022/12/23 05:28:06;;;;;;;;;;;;;;;;;;4453283;32;19937;-82
2022/12/23 05:30:31;;;;;;;;;;;;;;;;;;4438792;32;20332;-83
2022/12/23 05:32:57;;;;;;;;;;;;;;;;;;4455892;32;19945;-83
2022/12/23 05:35:22;;;;;;;;;;;;;;;;;;4455460;32;20005;-83
2022/12/23 05:37:47;;;;;;;;;;;;;;;;;;4456133;32;19980;-83
2022/12/23 05:40:12;;;;;;;;;;;;;;;;;;4456246;32;19937;-83
2022/12/23 05:42:37;;;;;;;;;;;;;;;;;;4455199;32;19942;-82
2022/12/23 05:45:02;;;;;;;;;;;;;;;;;;4455328;32;19971;-82
2022/12/23 05:47:27;;;;;;;;;;;;;;;;;;4455353;32;19936;-82
2022/12/23 05:49:52;;;;;;;;;;;;;;;;;;4455182;32;20262;-82
2022/12/23 05:52:17;;;;;;;;;;;;;;;;;;4443469;32;20325;-82
2022/12/23 05:54:43;;;;;;;;;;;;;;;;;;4456734;32;19932;-82
2022/12/23 05:57:09;;;;;;;;;;;;;;;;;;4440185;32;19944;-82
2022/12/23 05:59:34;;;;;;;;;;;;;;;;;;4439322;32;19933;-82
2022/12/23 06:01:59;;;;;;;;;;;;;;;;;;4453187;32;20310;-82
2022/12/23 06:04:24;;;;;;;;;;;;;;;;;;4452752;32;19936;-81
2022/12/23 06:06:49;;;;;;;;;;;;;;;;;;4453291;32;19965;-81
2022/12/23 06:09:14;;;;;;;;;;;;;;;;;;4455063;32;19933;-82
2022/12/23 06:11:40;;;;;;;;;;;;;;;;;;4453067;32;20207;-82
2022/12/23 06:14:06;;;;;;;;;;;;;;;;;;4439674;32;19952;-81
2022/12/23 06:16:31;;;;;;;;;;;;;;;;;;4453738;32;19995;-83
2022/12/23 06:18:56;;;;;;;;;;;;;;;;;;4452185;32;19932;-82
2022/12/23 06:21:21;;;;;;;;;;;;;;;;;;4453699;32;20291;-83
2022/12/23 06:23:46;;;;;;;;;;;;;;;;;;4453537;32;19990;-85
2022/12/23 06:26:11;;;;;;;;;;;;;;;;;;4441410;32;20424;-83
2022/12/23 06:28:37;;;;;;;;;;;;;;;;;;4455513;32;20244;-84
2022/12/23 06:31:02;;;;;;;;;;;;;;;;;;4443112;32;19936;-83
2022/12/23 06:33:27;;;;;;;;;;;;;;;;;;4442304;32;19963;-83
2022/12/23 06:35:52;;;;;;;;;;;;;;;;;;4440695;32;19940;-83
2022/12/23 06:38:17;;;;;;;;;;;;;;;;;;4457212;32;19940;-84
2022/12/23 06:40:42;;;;;;;;;;;;;;;;;;4457140;32;19937;-83
2022/12/23 06:43:09;;;;;;;;;;;;;;;;;;4458042;32;20274;-83
2022/12/23 06:45:34;;;;;;;;;;;;;;;;;;4457097;32;19936;-83
2022/12/23 06:47:59;;;;;;;;;;;;;;;;;;4443813;32;19988;-84
2022/12/23 06:50:24;;;;;;;;;;;;;;;;;;4457279;32;20282;-85
2022/12/23 06:52:49;;;;;;;;;;;;;;;;;;4454899;32;19932;-82
2022/12/23 06:55:15;;;;;;;;;;;;;;;;;;4454227;32;19968;-82
2022/12/23 06:57:40;;;;;;;;;;;;;;;;;;4441062;32;20085;-80
2022/12/23 07:00:05;;;;;;;;;;;;;;;;;;4454533;32;19932;-82
2022/12/23 07:02:30;;;;;;;;;;;;;;;;;;4457535;32;19986;-82
2022/12/23 07:04:55;;;;;;;;;;;;;;;;;;4464923;32;19946;-82
2022/12/23 07:07:20;;;;;;;;;;;;;;;;;;4460310;32;19966;-81
2022/12/23 07:09:45;;;;;;;;;;;;;;;;;;4442245;32;19937;-82
2022/12/23 07:12:10;;;;;;;;;;;;;;;;;;4458498;32;19979;-81
2022/12/23 07:14:35;;;;;;;;;;;;;;;;;;4456666;32;19944;-81
2022/12/23 07:17:00;;;;;;;;;;;;;;;;;;4454085;32;19940;-82
2022/12/23 07:19:25;;;;;;;;;;;;;;;;;;4454364;32;19950;-82
2022/12/23 07:21:51;;;;;;;;;;;;;;;;;;4441935;32;19957;-82
2022/12/23 07:24:18;;;;;;;;;;;;;;;;;;4455633;32;19965;-83
2022/12/23 07:26:44;;;;;;;;;;;;;;;;;;4442313;32;19932;-82
2022/12/23 07:29:09;;;;;;;;;;;;;;;;;;4442531;32;20235;-84
2022/12/23 07:31:34;;;;;;;;;;;;;;;;;;4455390;32;19932;-80
2022/12/23 07:33:59;;;;;;;;;;;;;;;;;;4455253;32;19936;-80
2022/12/23 07:36:24;;;;;;;;;;;;;;;;;;4455562;32;19973;-81
2022/12/23 07:38:50;;;;;;;;;;;;;;;;;;4446853;32;20352;-80
2022/12/23 07:41:15;;;;;;;;;;;;;;;;;;4449176;32;19933;-82
2022/12/23 07:43:40;;;;;;;;;;;;;;;;;;4464252;32;19943;-82
2022/12/23 07:46:05;;;;;;;;;;;;;;;;;;4460894;32;19940;-82
2022/12/23 07:48:30;;;;;;;;;;;;;;;;;;4458766;32;20024;-83
2022/12/23 07:50:55;;;;;;;;;;;;;;;;;;4456599;32;20324;-82
2022/12/23 07:53:20;;;;;;;;;;;;;;;;;;4455022;32;19992;-82
2022/12/23 07:55:46;;;;;;;;;;;;;;;;;;4454089;32;19940;-80
2022/12/23 07:58:11;;;;;;;;;;;;;;;;;;4453746;32;19992;-81
2022/12/23 08:00:36;;;;;;;;;;;;;;;;;;4453609;32;20005;-81
2022/12/23 08:03:01;;;;;;;;;;;;;;;;;;4453846;32;19971;-81
2022/12/23 08:05:26;;;;;;;;;;;;;;;;;;4452736;32;19976;-80
2022/12/23 08:07:51;;;;;;;;;;;;;;;;;;4452012;32;19937;-81
2022/12/23 08:10:16;;;;;;;;;;;;;;;;;;4452023;32;19943;-81
2022/12/23 08:12:41;;;;;;;;;;;;;;;;;;4453118;32;19964;-81
2022/12/23 08:15:07;;;;;;;;;;;;;;;;;;4454411;32;19952;-82
2022/12/23 08:17:32;;;;;;;;;;;;;;;;;;4453362;32;19976;-82
2022/12/23 08:19:57;;;;;;;;;;;;;;;;;;4453448;32;19984;-82
2022/12/23 08:22:22;;;;;;;;;;;;;;;;;;4438000;32;19945;-81
2022/12/23 08:24:47;;;;;;;;;;;;;;;;;;4453286;32;20350;-80
2022/12/23 08:27:12;;;;;;;;;;;;;;;;;;4438533;32;20010;-80
2022/12/23 08:29:37;;;;;;;;;;;;;;;;;;4439211;32;20356;-80
2022/12/23 08:32:02;;;;;;;;;;;;;;;;;;4458709;32;19941;-81
2022/12/23 08:34:27;;;;;;;;;;;;;;;;;;4456064;32;19937;-81
2022/12/23 08:36:53;;;;;;;;;;;;;;;;;;4453489;32;19999;-81
2022/12/23 08:39:18;;;;;;;;;;;;;;;;;;4455612;32;19932;-81
2022/12/23 08:41:43;;;;;;;;;;;;;;;;;;4455329;32;19962;-79
2022/12/23 08:44:08;;;;;;;;;;;;;;;;;;4455682;32;19952;-80
2022/12/23 08:46:33;;;;;;;;;;;;;;;;;;4455928;32;19937;-81
2022/12/23 08:48:58;;;;;;;;;;;;;;;;;;4454810;32;20018;-81
2022/12/23 08:51:23;;;;;;;;;;;;;;;;;;4455467;32;19940;-81
2022/12/23 08:53:48;;;;;;;;;;;;;;;;;;4456202;32;19951;-81
2022/12/23 08:56:14;;;;;;;;;;;;;;;;;;4457851;32;19936;-80
2022/12/23 08:58:39;;;;;;;;;;;;;;;;;;4456988;32;19952;-81
2022/12/23 09:01:04;;;;;;;;;;;;;;;;;;4457805;32;19932;-80
2022/12/23 09:03:29;;;;;;;;;;;;;;;;;;4455663;32;19968;-80
2022/12/23 09:05:54;;;;;;;;;;;;;;;;;;4454182;32;20286;-80
2022/12/23 09:08:19;;;;;;;;;;;;;;;;;;4455070;32;19964;-81
2022/12/23 09:10:44;;;;;;;;;;;;;;;;;;4455370;32;19932;-80
2022/12/23 09:13:09;;;;;;;;;;;;;;;;;;4454478;32;19969;-80
2022/12/23 09:15:37;;;;;;;;;;;;;;;;;;4454855;32;19936;-80
2022/12/23 09:18:02;;;;;;;;;;;;;;;;;;4455469;32;19984;-81
2022/12/23 09:20:27;;;;;;;;;;;;;;;;;;4453761;32;19932;-81
2022/12/23 09:22:52;;;;;;;;;;;;;;;;;;4452159;32;19989;-79
2022/12/23 09:25:17;;;;;;;;;;;;;;;;;;4452194;32;19972;-80
2022/12/23 09:27:43;;;;;;;;;;;;;;;;;;4451424;32;20276;-80
2022/12/23 09:30:09;;;;;;;;;;;;;;;;;;4452932;32;19932;-81
2022/12/23 09:32:34;;;;;;;;;;;;;;;;;;4452742;32;19951;-80
2022/12/23 09:34:59;;;;;;;;;;;;;;;;;;4451310;32;19988;-80
2022/12/23 09:37:24;;;;;;;;;;;;;;;;;;4452992;32;19977;-81
2022/12/23 09:39:49;;;;;;;;;;;;;;;;;;4451773;32;19932;-79
2022/12/23 09:42:14;;;;;;;;;;;;;;;;;;4452705;32;20342;-80
2022/12/23 09:44:40;;;;;;;;;;;;;;;;;;4452282;32;19959;-81
2022/12/23 09:47:05;;;;;;;;;;;;;;;;;;4451093;32;19939;-80
2022/12/23 09:49:30;;;;;;;;;;;;;;;;;;4453042;32;19940;-81
2022/12/23 09:51:55;;;;;;;;;;;;;;;;;;4453029;32;20302;-81
2022/12/23 09:54:20;;;;;;;;;;;;;;;;;;4454170;32;20288;-80
2022/12/23 09:56:46;;;;;;;;;;;;;;;;;;4451414;32;19941;-81
2022/12/23 09:59:11;;;;;;;;;;;;;;;;;;4452780;32;19952;-81
2022/12/23 10:01:36;;;;;;;;;;;;;;;;;;4453603;32;19943;-81
2022/12/23 10:04:01;;;;;;;;;;;;;;;;;;4452614;32;20020;-81
2022/12/23 10:06:26;;;;;;;;;;;;;;;;;;4452382;32;19987;-81
2022/12/23 10:08:51;;;;;;;;;;;;;;;;;;4452941;32;19975;-81
2022/12/23 10:11:16;;;;;;;;;;;;;;;;;;4453222;32;19941;-81
2022/12/23 10:13:41;;;;;;;;;;;;;;;;;;4452300;32;19937;-81
2022/12/23 10:16:08;;;;;;;;;;;;;;;;;;4451999;32;19945;-82
2022/12/23 10:18:33;;;;;;;;;;;;;;;;;;4455327;32;19939;-81
2022/12/23 10:20:58;;;;;;;;;;;;;;;;;;4453533;32;19936;-81
2022/12/23 10:23:23;;;;;;;;;;;;;;;;;;4453737;32;19955;-81
2022/12/23 10:25:49;;;;;;;;;;;;;;;;;;4455274;32;19937;-82
2022/12/23 10:28:14;;;;;;;;;;;;;;;;;;4453710;32;19963;-82
2022/12/23 10:30:39;;;;;;;;;;;;;;;;;;4456911;32;20302;-81
2022/12/23 10:33:04;;;;;;;;;;;;;;;;;;4455672;32;19976;-81
2022/12/23 10:35:29;;;;;;;;;;;;;;;;;;4455236;32;19960;-81
2022/12/23 10:37:54;;;;;;;;;;;;;;;;;;4456260;32;20301;-82
2022/12/23 10:40:19;;;;;;;;;;;;;;;;;;4456724;32;20294;-79
2022/12/23 10:42:44;;;;;;;;;;;;;;;;;;4462112;32;19928;-80
2022/12/23 10:45:10;;;;;;;;;;;;;;;;;;4456524;32;19960;-81
2022/12/23 10:47:35;;;;;;;;;;;;;;;;;;4457457;32;19944;-81
2022/12/23 10:50:00;;;;;;;;;;;;;;;;;;4456445;32;19933;-82
2022/12/23 10:52:25;;;;;;;;;;;;;;;;;;4455551;32;19933;-81
2022/12/23 10:54:50;;;;;;;;;;;;;;;;;;4457493;32;19932;-81
2022/12/23 10:57:15;;;;;;;;;;;;;;;;;;4455355;32;19999;-80
2022/12/23 10:59:40;;;;;;;;;;;;;;;;;;4454781;32;20040;-80
2022/12/23 11:02:05;;;;;;;;;;;;;;;;;;4457869;32;20289;-78
2022/12/23 11:04:30;;;;;;;;;;;;;;;;;;4457827;32;19977;-79
2022/12/23 11:06:55;;;;;;;;;;;;;;;;;;4458404;32;19940;-77
2022/12/23 11:09:21;;;;;;;;;;;;;;;;;;4459066;32;19969;-78
2022/12/23 11:11:46;;;;;;;;;;;;;;;;;;4459101;32;19999;-78
2022/12/23 11:14:11;;;;;;;;;;;;;;;;;;4452746;32;19980;-76
2022/12/23 11:16:36;;;;;;;;;;;;;;;;;;4453209;32;20328;-76
2022/12/23 11:19:01;;;;;;;;;;;;;;;;;;4453411;32;19951;-76
2022/12/23 11:21:26;;;;;;;;;;;;;;;;;;4452180;32;19937;-76
2022/12/23 11:23:51;;;;;;;;;;;;;;;;;;4453190;32;19975;-76
2022/12/23 11:26:16;;;;;;;;;;;;;;;;;;4453017;32;19975;-76
2022/12/23 11:28:41;;;;;;;;;;;;;;;;;;4452731;32;20280;-77
2022/12/23 11:31:08;;;;;;;;;;;;;;;;;;4454294;32;20270;-77
2022/12/23 11:33:33;;;;;;;;;;;;;;;;;;4453272;32;20307;-76
2022/12/23 11:35:58;;;;;;;;;;;;;;;;;;4453255;32;20329;-76
2022/12/23 11:38:23;;;;;;;;;;;;;;;;;;4452948;32;20269;-76
2022/12/23 11:40:48;;;;;;;;;;;;;;;;;;4452469;32;19933;-76
2022/12/23 11:43:13;;;;;;;;;;;;;;;;;;4452347;32;20003;-76
2022/12/23 11:45:39;;;;;;;;;;;;;;;;;;4454525;32;19951;-76
2022/12/23 11:48:04;;;;;;;;;;;;;;;;;;4454711;32;19932;-77
2022/12/23 11:50:29;;;;;;;;;;;;;;;;;;4453136;32;19933;-77
2022/12/23 11:52:54;;;;;;;;;;;;;;;;;;4454076;32;19940;-77
2022/12/23 11:55:19;;;;;;;;;;;;;;;;;;4454047;32;19951;-77
2022/12/23 11:57:44;;;;;;;;;;;;;;;;;;4451799;32;19937;-78
2022/12/23 12:00:09;;;;;;;;;;;;;;;;;;4453529;32;19947;-78
2022/12/23 12:02:35;;;;;;;;;;;;;;;;;;4452257;32;19936;-77
2022/12/23 12:05:00;;;;;;;;;;;;;;;;;;4452514;32;19965;-77
2022/12/23 12:07:25;;;;;;;;;;;;;;;;;;4452086;32;20347;-77
2022/12/23 12:09:50;;;;;;;;;;;;;;;;;;4452609;32;19946;-77
2022/12/23 12:12:15;;;;;;;;;;;;;;;;;;4452419;32;19932;-77
2022/12/23 12:14:41;;;;;;;;;;;;;;;;;;4452126;32;19972;-79
2022/12/23 12:17:06;;;;;;;;;;;;;;;;;;4452498;32;19973;-76
2022/12/23 12:19:31;;;;;;;;;;;;;;;;;;4451124;32;20373;-77
2022/12/23 12:21:56;;;;;;;;;;;;;;;;;;4453611;32;19937;-78
2022/12/23 12:24:22;;;;;;;;;;;;;;;;;;4450771;32;19947;-76
2022/12/23 12:26:49;;;;;;;;;;;;;;;;;;4453843;32;20270;-78
2022/12/23 12:29:14;;;;;;;;;;;;;;;;;;4455504;32;20328;-77
2022/12/23 12:31:40;;;;;;;;;;;;;;;;;;4454672;32;20037;-77
2022/12/23 12:34:05;;;;;;;;;;;;;;;;;;4452319;32;19936;-78
2022/12/23 12:36:30;;;;;;;;;;;;;;;;;;4453066;32;19956;-78
2022/12/23 12:38:55;;;;;;;;;;;;;;;;;;4452090;32;19989;-77
2022/12/23 12:41:20;;;;;;;;;;;;;;;;;;4451514;32;19933;-76
2022/12/23 12:43:45;;;;;;;;;;;;;;;;;;4452939;32;19943;-76
2022/12/23 12:46:10;;;;;;;;;;;;;;;;;;4451920;32;19932;-76
2022/12/23 12:48:35;;;;;;;;;;;;;;;;;;4453806;32;19989;-77
2022/12/23 12:51:00;;;;;;;;;;;;;;;;;;4451934;32;20005;-77
2022/12/23 12:53:25;;;;;;;;;;;;;;;;;;4451854;32;19956;-77
2022/12/23 12:55:51;;;;;;;;;;;;;;;;;;4451871;32;20003;-77
2022/12/23 12:58:16;;;;;;;;;;;;;;;;;;4450430;32;20310;-76
2022/12/23 13:00:41;;;;;;;;;;;;;;;;;;4452212;32;20286;-78
2022/12/23 13:03:06;;;;;;;;;;;;;;;;;;4450659;32;19947;-76
2022/12/23 13:05:31;;;;;;;;;;;;;;;;;;4452795;32;19951;-76
2022/12/23 13:07:56;;;;;;;;;;;;;;;;;;4453165;32;19979;-77
2022/12/23 13:10:21;;;;;;;;;;;;;;;;;;4450936;32;19972;-76
2022/12/23 13:12:46;;;;;;;;;;;;;;;;;;4451712;32;19932;-76
2022/12/23 13:15:11;;;;;;;;;;;;;;;;;;4451872;32;19971;-75
2022/12/23 13:17:40;;;;;;;;;;;;;;;;;;4451543;32;20348;-77
2022/12/23 13:20:05;;;;;;;;;;;;;;;;;;4452151;32;19955;-77
2022/12/23 13:22:30;;;;;;;;;;;;;;;;;;4451905;32;19940;-79
2022/12/23 13:24:55;;;;;;;;;;;;;;;;;;4451329;32;19974;-77
2022/12/23 13:27:20;;;;;;;;;;;;;;;;;;4451765;32;19940;-76
2022/12/23 13:29:45;;;;;;;;;;;;;;;;;;4436623;32;19940;-76
2022/12/23 13:32:10;;;;;;;;;;;;;;;;;;4438108;32;19972;-77
2022/12/23 13:34:35;;;;;;;;;;;;;;;;;;4451212;32;19994;-77
2022/12/23 13:37:01;;;;;;;;;;;;;;;;;;4439010;32;20357;-77
2022/12/23 13:39:26;;;;;;;;;;;;;;;;;;4451420;32;19953;-78
2022/12/23 13:41:51;;;;;;;;;;;;;;;;;;4452288;32;19980;-78
2022/12/23 13:44:17;;;;;;;;;;;;;;;;;;4437807;32;19944;-77
2022/12/23 13:46:42;;;;;;;;;;;;;;;;;;4451982;32;19987;-77
2022/12/23 13:49:07;;;;;;;;;;;;;;;;;;4454082;32;19936;-78
2022/12/23 13:51:32;;;;;;;;;;;;;;;;;;4454296;32;19947;-79
2022/12/23 13:53:57;;;;;;;;;;;;;;;;;;4440779;32;19947;-78
2022/12/23 13:56:23;;;;;;;;;;;;;;;;;;4440632;32;19945;-78
2022/12/23 13:58:48;;;;;;;;;;;;;;;;;;4454860;32;19948;-79
2022/12/23 14:01:13;;;;;;;;;;;;;;;;;;4441659;32;19943;-78
2022/12/23 14:03:38;;;;;;;;;;;;;;;;;;4440298;32;19936;-78
2022/12/23 14:06:03;;;;;;;;;;;;;;;;;;4440638;32;19936;-77
2022/12/23 14:08:28;;;;;;;;;;;;;;;;;;4453969;32;19951;-78
2022/12/23 14:10:54;;;;;;;;;;;;;;;;;;4454689;32;19972;-79
2022/12/23 14:13:19;;;;;;;;;;;;;;;;;;4454784;32;19952;-78
2022/12/23 14:15:45;;;;;;;;;;;;;;;;;;4454564;32;19945;-79
2022/12/23 14:18:10;;;;;;;;;;;;;;;;;;4454396;32;20372;-78
2022/12/23 14:20:35;;;;;;;;;;;;;;;;;;4440737;32;19992;-77
2022/12/23 14:23:00;;;;;;;;;;;;;;;;;;4454974;32;19937;-78
2022/12/23 14:25:25;;;;;;;;;;;;;;;;;;4458614;32;19943;-77
2022/12/23 14:27:50;;;;;;;;;;;;;;;;;;4463819;32;19977;-77
2022/12/23 14:30:16;;;;;;;;;;;;;;;;;;4465940;32;19947;-77
2022/12/23 14:32:41;;;;;;;;;;;;;;;;;;4453068;32;19959;-77
2022/12/23 14:35:06;;;;;;;;;;;;;;;;;;4467488;32;19932;-78
2022/12/23 14:37:31;;;;;;;;;;;;;;;;;;4462046;32;20347;-78
2022/12/23 14:39:58;;;;;;;;;;;;;;;;;;4441419;32;19940;-78
2022/12/23 14:42:23;;;;;;;;;;;;;;;;;;4455681;32;19945;-77
2022/12/23 14:44:49;;;;;;;;;;;;;;;;;;4454088;32;19932;-76
2022/12/23 14:47:14;;;;;;;;;;;;;;;;;;4453787;32;20350;-76
2022/12/23 14:49:39;;;;;;;;;;;;;;;;;;4454611;32;19959;-76
2022/12/23 14:52:04;;;;;;;;;;;;;;;;;;4441893;32;19936;-75
2022/12/23 14:54:29;;;;;;;;;;;;;;;;;;4456705;32;19947;-76
2022/12/23 14:56:54;;;;;;;;;;;;;;;;;;4455916;32;19937;-75
2022/12/23 14:59:19;;;;;;;;;;;;;;;;;;4454980;32;19947;-78
2022/12/23 15:01:44;;;;;;;;;;;;;;;;;;4454605;32;19947;-76
2022/12/23 15:04:09;;;;;;;;;;;;;;;;;;4454272;32;19932;-76
2022/12/23 15:06:35;;;;;;;;;;;;;;;;;;4454470;32;19959;-77
2022/12/23 15:09:00;;;;;;;;;;;;;;;;;;4457953;32;19940;-77
2022/12/23 15:11:25;;;;;;;;;;;;;;;;;;4455284;32;19951;-77
2022/12/23 15:13:50;;;;;;;;;;;;;;;;;;4440232;32;19936;-76
2022/12/23 15:16:16;;;;;;;;;;;;;;;;;;4454055;32;19940;-77
2022/12/23 15:18:41;;;;;;;;;;;;;;;;;;4453968;32;19968;-78
2022/12/23 15:21:06;;;;;;;;;;;;;;;;;;4453976;32;19970;-77
2022/12/23 15:23:32;;;;;;;;;;;;;;;;;;4439538;32;19936;-77
2022/12/23 15:25:57;;;;;;;;;;;;;;;;;;4454106;32;19933;-77
2022/12/23 15:28:23;;;;;;;;;;;;;;;;;;4441100;32;19936;-77
2022/12/23 15:30:48;;;;;;;;;;;;;;;;;;4453989;32;19959;-78
2022/12/23 15:33:13;;;;;;;;;;;;;;;;;;4454485;32;20310;-78
2022/12/23 15:35:38;;;;;;;;;;;;;;;;;;4454658;32;19984;-78
2022/12/23 15:38:03;;;;;;;;;;;;;;;;;;4453436;32;19978;-79
2022/12/23 15:40:28;;;;;;;;;;;;;;;;;;4455148;32;19970;-78
2022/12/23 15:42:53;;;;;;;;;;;;;;;;;;4453725;32;19980;-78
2022/12/23 15:45:18;;;;;;;;;;;;;;;;;;4453374;32;19971;-79
2022/12/23 15:47:44;;;;;;;;;;;;;;;;;;4439666;32;19941;-78
2022/12/23 15:50:09;;;;;;;;;;;;;;;;;;4455710;32;19936;-79
2022/12/23 15:52:34;;;;;;;;;;;;;;;;;;4454569;32;19947;-78
2022/12/23 15:55:02;;;;;;;;;;;;;;;;;;4453788;32;20000;-79
2022/12/23 15:57:27;;;;;;;;;;;;;;;;;;4453736;32;19992;-78
2022/12/23 15:59:52;;;;;;;;;;;;;;;;;;4454122;32;19951;-78
2022/12/23 16:02:17;;;;;;;;;;;;;;;;;;4455007;32;19932;-77
2022/12/23 16:04:42;;;;;;;;;;;;;;;;;;4455150;32;19985;-78
2022/12/23 16:07:07;;;;;;;;;;;;;;;;;;4439841;32;19936;-78
2022/12/23 16:09:33;;;;;;;;;;;;;;;;;;4454519;32;19943;-77
2022/12/23 16:11:58;;;;;;;;;;;;;;;;;;4453385;32;19932;-75
2022/12/23 16:14:23;;;;;;;;;;;;;;;;;;4453378;32;19941;-77
2022/12/23 16:16:48;;;;;;;;;;;;;;;;;;4454150;32;20267;-76
2022/12/23 16:19:13;;;;;;;;;;;;;;;;;;4453869;32;19936;-75
2022/12/23 16:21:38;;;;;;;;;;;;;;;;;;4453305;32;19947;-75
2022/12/23 16:24:03;;;;;;;;;;;;;;;;;;4455619;32;19937;-76
2022/12/23 16:26:29;;;;;;;;;;;;;;;;;;4459376;32;20015;-78
2022/12/23 16:28:54;;;;;;;;;;;;;;;;;;4456006;32;19990;-77
2022/12/23 16:31:19;;;;;;;;;;;;;;;;;;4455738;32;19947;-77
2022/12/23 16:33:44;;;;;;;;;;;;;;;;;;4455452;32;20297;-77
2022/12/23 16:36:09;;;;;;;;;;;;;;;;;;4438892;32;20313;-77
2022/12/23 16:38:34;;;;;;;;;;;;;;;;;;4455307;32;20241;-77
2022/12/23 16:40:59;;;;;;;;;;;;;;;;;;4453498;32;19979;-77
2022/12/23 16:43:24;;;;;;;;;;;;;;;;;;4438186;32;19941;-77
2022/12/23 16:45:49;;;;;;;;;;;;;;;;;;4454133;32;19947;-78
2022/12/23 16:48:15;;;;;;;;;;;;;;;;;;4452691;32;19951;-78
2022/12/23 16:50:40;;;;;;;;;;;;;;;;;;4453609;32;19944;-78
2022/12/23 16:53:05;;;;;;;;;;;;;;;;;;4453718;32;20314;-77
2022/12/23 16:55:30;;;;;;;;;;;;;;;;;;4454896;32;19968;-78